Date,TemperatureHighF,TemperatureAvgF,TemperatureLowF,DewpointHighF,DewpointAvgF,DewpointLowF,HumidityHigh,HumidityAvg,HumidityLow,PressureMaxIn,PressureMinIn,WindSpeedMaxMPH,WindSpeedAvgMPH,GustSpeedMaxMPH,PrecipitationSumIn
2013-11-1,59.5,37.3,18.1,31.0,19.0,12.3,88,53,18,30.82,29.73,8,1,11,0.00
2013-11-2,67.8,41.5,23.0,30.9,17.3,10.8,81,45,13,30.72,29.10,7,1,12,0.00
2013-11-3,59.3,39.6,25.5,29.2,21.8,13.0,73,51,25,29.89,28.33,8,2,17,0.00
2013-11-4,54.1,36.7,19.2,34.6,22.8,12.3,85,60,31,29.77,28.76,8,1,16,0.00
2013-11-5,34.1,27.9,24.4,25.0,20.3,17.0,84,73,63,29.96,29.53,2,0,4,0.00
2013-11-6,53.9,37.3,13.8,9.7,2.9,-7.0,58,25,16,31.30,29.86,8,2,11,0.00
2013-11-7,64.5,37.7,21.3,17.4,7.8,-5.0,55,31,14,31.18,29.65,7,1,11,0.00
2013-11-8,64.2,37.0,18.3,27.2,13.1,6.7,68,43,16,30.74,29.18,6,1,11,0.00
2013-11-9,64.9,38.9,20.8,32.7,17.3,11.7,80,48,16,30.67,29.49,5,1,9,0.00
2013-11-10,63.6,38.9,22.6,32.9,21.7,14.5,76,54,23,30.90,29.80,3,0,6,0.00
2013-11-11,62.7,40.3,23.0,30.5,18.9,14.4,82,49,17,31.04,29.62,9,1,14,0.00
2013-11-12,63.5,42.2,27.8,25.4,17.9,12.5,63,42,16,31.24,30.12,6,2,11,0.00
2013-11-13,64.4,41.7,26.4,33.0,25.0,15.8,78,55,24,30.94,29.36,5,1,10,0.00
2013-11-14,64.7,39.7,23.5,33.5,19.5,12.7,88,53,14,30.46,29.17,5,1,12,0.00
2013-11-15,51.2,39.4,26.4,40.9,31.9,15.6,99,75,60,29.74,28.60,9,2,19,0.08
2013-11-16,46.4,40.5,36.3,39.7,37.4,35.5,99,89,72,29.11,28.30,11,3,21,0.01
2013-11-17,50.9,38.5,25.7,37.8,32.8,22.1,97,81,55,30.49,29.04,6,1,13,0.00
2013-11-18,58.6,35.6,20.3,44.7,27.2,17.2,99,74,40,30.72,29.40,6,1,9,0.00
2013-11-19,53.9,36.8,22.8,42.9,30.4,19.3,98,79,57,30.38,29.33,5,1,12,0.00
2013-11-20,44.2,38.1,31.1,40.7,36.7,28.7,99,95,83,29.76,29.38,5,1,11,0.20
2013-11-21,41.7,39.0,32.7,41.4,38.6,32.1,99,99,97,29.66,29.19,4,1,11,0.35
2013-11-22,35.0,32.9,32.0,34.5,32.6,31.6,99,99,97,29.86,29.54,3,0,8,0.97
2013-11-23,36.5,32.8,30.7,35.2,32.2,30.2,99,98,91,29.95,29.63,5,0,8,0.13
2013-11-24,38.4,31.1,24.8,34.6,29.5,22.8,99,94,79,30.30,29.76,3,0,6,0.12
2013-11-25,44.2,28.9,15.4,38.6,20.2,11.7,99,72,34,30.67,29.68,9,1,15,0.04
2013-11-26,45.1,34.6,25.7,27.0,22.4,16.8,85,62,42,30.84,29.94,8,2,15,0.00
2013-11-27,42.4,29.8,21.2,29.7,23.0,17.4,91,76,56,30.80,29.59,5,1,11,0.00
2013-11-28,51.8,31.0,18.5,30.4,20.8,13.3,91,69,31,30.55,29.34,4,1,8,0.00
2013-11-29,51.2,30.9,18.6,31.7,22.7,13.2,87,73,43,30.68,29.82,4,0,8,0.00
2013-11-30,43.7,28.8,20.3,35.6,25.0,16.5,93,86,69,30.82,30.12,5,1,9,0.00